sensor_id;sensor_type;location;lat;lon;timestamp;pressure;altitude;pressure_sealevel;temperature;humidity
56558;BME280;43358;50.356;12.456;2023-06-19T05:39:19;95350;;;25.1;50.4
56558;BME280;43358;50.356;12.456;2023-06-19T05:39:52;95399;;;25.2;53.8
56558;BME280;43358;50.356;12.456;2023-06-19T05:40:54;95396;;;15.1;89.9
56558;BME280;43358;50.356;12.456;2023-06-19T05:41:56;95399;;;15.1;90.1
56558;BME280;43358;50.356;12.456;2023-06-19T05:42:59;95403;;;15.1;90.5
56558;BME280;43358;50.356;12.456;2023-06-19T05:44:01;95399;;;15.1;90.3
56558;BME280;43358;50.356;12.456;2023-06-19T05:46:09;95400;;;15.1;90.3
56558;BME280;43358;50.356;12.456;2023-06-19T05:47:13;95406;;;15.1;90.7
56558;BME280;43358;50.356;12.456;2023-06-19T05:48:15;95405;;;15.1;90.5
56558;BME280;43358;50.356;12.456;2023-06-19T05:50:21;95399;;;15.2;90.9
56558;BME280;43358;50.356;12.456;2023-06-19T05:52:25;95406;;;15.2;90
56558;BME280;43358;50.356;12.456;2023-06-19T05:53:27;95405;;;15.2;90.8
56558;BME280;43358;50.356;12.456;2023-06-19T05:54:34;95403;;;15.2;90.1
56558;BME280;43358;50.356;12.456;2023-06-19T05:55:31;95401;;;15.3;89.7
56558;BME280;43358;50.356;12.456;2023-06-19T05:56:34;95402;;;15.3;89.9
56558;BME280;43358;50.356;12.456;2023-06-19T05:58:38;95404;;;15.2;89.1
56558;BME280;43358;50.356;12.456;2023-06-19T05:59:40;95406;;;15.2;89.4
56558;BME280;43358;50.356;12.456;2023-06-19T06:00:44;95406;;;15.2;88.8
56558;BME280;43358;50.356;12.456;2023-06-19T06:01:46;95406;;;15.3;89.3
56558;BME280;43358;50.356;12.456;2023-06-19T06:02:49;95408;;;15.3;89.1
56558;BME280;43358;50.356;12.456;2023-06-19T06:03:51;95409;;;15.3;89.4
56558;BME280;43358;50.356;12.456;2023-06-19T06:04:54;95408;;;15.3;89.8
56558;BME280;43358;50.356;12.456;2023-06-19T06:05:56;95406;;;15.3;89.8
56558;BME280;43358;50.356;12.456;2023-06-19T06:06:58;95407;;;15.3;90.1
56558;BME280;43358;50.356;12.456;2023-06-19T06:08:17;95407;;;15.3;90.2
56558;BME280;43358;50.356;12.456;2023-06-19T06:09:17;95405;;;15.3;90.4
56558;BME280;43358;50.356;12.456;2023-06-19T06:10:18;95404;;;15.3;90.3
56558;BME280;43358;50.356;12.456;2023-06-19T06:11:17;95405;;;15.3;90.3
56558;BME280;43358;50.356;12.456;2023-06-19T06:14:17;95408;;;15.3;90.7
56558;BME280;43358;50.356;12.456;2023-06-19T06:15:17;95405;;;15.4;90.7
56558;BME280;43358;50.356;12.456;2023-06-19T06:16:47;95404;;;15.4;90.8
56558;BME280;43358;50.356;12.456;2023-06-19T06:17:49;95401;;;15.4;90.7
56558;BME280;43358;50.356;12.456;2023-06-19T06:18:52;95400;;;15.4;90.6
56558;BME280;43358;50.356;12.456;2023-06-19T06:19:56;95394;;;15.4;90.5
56558;BME280;43358;50.356;12.456;2023-06-19T06:21:00;95390;;;15.4;90.2
56558;BME280;43358;50.356;12.456;2023-06-19T06:22:02;95390;;;15.5;89.9
56558;BME280;43358;50.356;12.456;2023-06-19T06:23:04;95392;;;15.5;90.1
56558;BME280;43358;50.356;12.456;2023-06-19T06:24:07;95393;;;15.5;88.9
56558;BME280;43358;50.356;12.456;2023-06-19T06:25:09;95396;;;15.5;89.9
56558;BME280;43358;50.356;12.456;2023-06-19T06:27:13;95395;;;15.6;90.1
56558;BME280;43358;50.356;12.456;2023-06-19T06:28:15;95393;;;15.6;90
56558;BME280;43358;50.356;12.456;2023-06-19T06:29:17;95390;;;15.6;88.1
56558;BME280;43358;50.356;12.456;2023-06-19T06:30:19;95391;;;15.7;88.1
56558;BME280;43358;50.356;12.456;2023-06-19T06:31:21;95391;;;15.7;88.4
56558;BME280;43358;50.356;12.456;2023-06-19T06:33:31;95399;;;15.8;89.3
56558;BME280;43358;50.356;12.456;2023-06-19T06:34:36;95397;;;15.8;89.2
56558;BME280;43358;50.356;12.456;2023-06-19T06:35:30;95398;;;15.9;88.4
56558;BME280;43358;50.356;12.456;2023-06-19T06:36:32;95394;;;15.9;89.1
56558;BME280;43358;50.356;12.456;2023-06-19T06:37:35;95399;;;15.9;89.4
56558;BME280;43358;50.356;12.456;2023-06-19T06:38:37;95399;;;15.9;89.5
56558;BME280;43358;50.356;12.456;2023-06-19T06:39:39;95398;;;16;89.7
56558;BME280;43358;50.356;12.456;2023-06-19T06:40:41;95396;;;16;89.2
56558;BME280;43358;50.356;12.456;2023-06-19T06:41:43;95395;;;16;88.9
56558;BME280;43358;50.356;12.456;2023-06-19T06:42:46;95393;;;16.1;88.6
56558;BME280;43358;50.356;12.456;2023-06-19T06:43:49;95393;;;16.1;88.5
56558;BME280;43358;50.356;12.456;2023-06-19T06:44:52;95398;;;16.2;88.7
56558;BME280;43358;50.356;12.456;2023-06-19T06:45:54;95405;;;16.2;88.7
56558;BME280;43358;50.356;12.456;2023-06-19T06:46:56;95410;;;16.3;89
56558;BME280;43358;50.356;12.456;2023-06-19T06:47:58;95410;;;16.3;88.7
56558;BME280;43358;50.356;12.456;2023-06-19T06:49:00;95404;;;16.4;88.6
56558;BME280;43358;50.356;12.456;2023-06-19T06:50:03;95397;;;16.4;88.5
56558;BME280;43358;50.356;12.456;2023-06-19T06:51:05;95397;;;16.5;88.5
56558;BME280;43358;50.356;12.456;2023-06-19T06:52:07;95396;;;16.5;86.4
56558;BME280;43358;50.356;12.456;2023-06-19T06:53:09;95396;;;16.6;86.2
56558;BME280;43358;50.356;12.456;2023-06-19T06:54:11;95399;;;16.7;86.5
56558;BME280;43358;50.356;12.456;2023-06-19T06:55:13;95399;;;16.7;86
56558;BME280;43358;50.356;12.456;2023-06-19T06:56:15;95399;;;16.8;86.6
56558;BME280;43358;50.356;12.456;2023-06-19T06:57:17;95400;;;17;86.5
56558;BME280;43358;50.356;12.456;2023-06-19T06:59:25;95400;;;17.2;86.6
56558;BME280;43358;50.356;12.456;2023-06-19T07:00:43;95400;;;17.2;87.7
56558;BME280;43358;50.356;12.456;2023-06-19T07:01:28;95398;;;17.2;87
56558;BME280;43358;50.356;12.456;2023-06-19T07:02:31;95397;;;17.2;86.7
56558;BME280;43358;50.356;12.456;2023-06-19T07:03:33;95401;;;17.3;87.2
56558;BME280;43358;50.356;12.456;2023-06-19T07:04:36;95403;;;17.4;87.7
56558;BME280;43358;50.356;12.456;2023-06-19T07:05:38;95403;;;17.5;87.2
56558;BME280;43358;50.356;12.456;2023-06-19T07:06:40;95400;;;17.6;85.4
56558;BME280;43358;50.356;12.456;2023-06-19T07:07:42;95401;;;17.7;85.3
56558;BME280;43358;50.356;12.456;2023-06-19T07:08:44;95401;;;17.8;84.9
56558;BME280;43358;50.356;12.456;2023-06-19T07:09:47;95399;;;17.9;84.8
56558;BME280;43358;50.356;12.456;2023-06-19T07:10:49;95402;;;18;85.2
56558;BME280;43358;50.356;12.456;2023-06-19T07:11:51;95401;;;18.1;84.5
56558;BME280;43358;50.356;12.456;2023-06-19T07:12:53;95399;;;18.2;84.5
56558;BME280;43358;50.356;12.456;2023-06-19T07:13:55;95402;;;18.3;84.5
56558;BME280;43358;50.356;12.456;2023-06-19T07:14:58;95398;;;18.4;84
56558;BME280;43358;50.356;12.456;2023-06-19T07:16:00;95398;;;18.6;82.9
56558;BME280;43358;50.356;12.456;2023-06-19T07:17:03;95394;;;18.7;83
56558;BME280;43358;50.356;12.456;2023-06-19T07:18:07;95396;;;18.7;82.1
56558;BME280;43358;50.356;12.456;2023-06-19T07:19:08;95396;;;18.8;81.6
56558;BME280;43358;50.356;12.456;2023-06-19T07:20:14;95398;;;18.8;81.3
56558;BME280;43358;50.356;12.456;2023-06-19T07:21:17;95400;;;19;80.8
56558;BME280;43358;50.356;12.456;2023-06-19T07:22:19;95399;;;19;81
56558;BME280;43358;50.356;12.456;2023-06-19T07:23:24;95395;;;19.1;80
56558;BME280;43358;50.356;12.456;2023-06-19T07:24:26;95395;;;19.2;80
56558;BME280;43358;50.356;12.456;2023-06-19T07:25:29;95395;;;19.2;80.6
56558;BME280;43358;50.356;12.456;2023-06-19T07:26:35;95394;;;19.3;79.5
56558;BME280;43358;50.356;12.456;2023-06-19T07:27:35;95394;;;19.4;78.4
56558;BME280;43358;50.356;12.456;2023-06-19T07:28:38;95394;;;19.4;79.3
56558;BME280;43358;50.356;12.456;2023-06-19T07:29:43;95393;;;19.4;79.1
56558;BME280;43358;50.356;12.456;2023-06-19T07:30:46;95400;;;19.4;78.3
56558;BME280;43358;50.356;12.456;2023-06-19T07:31:51;95394;;;19.4;78.6
56558;BME280;43358;50.356;12.456;2023-06-19T07:33:04;95397;;;19.5;78
56558;BME280;43358;50.356;12.456;2023-06-19T07:34:00;95399;;;19.5;78.6
56558;BME280;43358;50.356;12.456;2023-06-19T07:35:04;95399;;;19.5;79.6
56558;BME280;43358;50.356;12.456;2023-06-19T07:36:08;95402;;;19.6;79.4
56558;BME280;43358;50.356;12.456;2023-06-19T07:37:12;95403;;;19.6;78.4
56558;BME280;43358;50.356;12.456;2023-06-19T07:38:32;95400;;;19.6;78.7
56558;BME280;43358;50.356;12.456;2023-06-19T07:39:17;95403;;;19.5;79.1
56558;BME280;43358;50.356;12.456;2023-06-19T07:40:19;95402;;;19.5;78.3
56558;BME280;43358;50.356;12.456;2023-06-19T07:41:23;95401;;;19.5;79.3
56558;BME280;43358;50.356;12.456;2023-06-19T07:42:25;95403;;;19.5;80.4
56558;BME280;43358;50.356;12.456;2023-06-19T07:43:27;95397;;;19.5;81.7
56558;BME280;43358;50.356;12.456;2023-06-19T07:44:31;95396;;;19.5;81.4
56558;BME280;43358;50.356;12.456;2023-06-19T07:45:33;95399;;;19.4;81.1
56558;BME280;43358;50.356;12.456;2023-06-19T07:46:36;95396;;;19.4;82.1
56558;BME280;43358;50.356;12.456;2023-06-19T07:47:40;95400;;;19.4;81.8
56558;BME280;43358;50.356;12.456;2023-06-19T07:48:42;95396;;;19.4;81.5
56558;BME280;43358;50.356;12.456;2023-06-19T07:49:47;95398;;;19.4;80.9
56558;BME280;43358;50.356;12.456;2023-06-19T07:50:52;95395;;;19.4;80
56558;BME280;43358;50.356;12.456;2023-06-19T07:51:55;95393;;;19.4;78.4
56558;BME280;43358;50.356;12.456;2023-06-19T07:52:57;95393;;;19.5;78.6
56558;BME280;43358;50.356;12.456;2023-06-19T07:54:02;95394;;;19.5;76.4
56558;BME280;43358;50.356;12.456;2023-06-19T07:55:05;95392;;;19.5;78.3
56558;BME280;43358;50.356;12.456;2023-06-19T07:56:09;95394;;;19.6;78
56558;BME280;43358;50.356;12.456;2023-06-19T07:57:14;95389;;;19.6;79.3
56558;BME280;43358;50.356;12.456;2023-06-19T07:58:15;95390;;;19.6;77.4
56558;BME280;43358;50.356;12.456;2023-06-19T07:59:19;95393;;;19.7;75.4
56558;BME280;43358;50.356;12.456;2023-06-19T08:00:23;95395;;;19.8;77.1
56558;BME280;43358;50.356;12.456;2023-06-19T08:01:28;95397;;;19.8;77.1
56558;BME280;43358;50.356;12.456;2023-06-19T08:02:30;95399;;;19.8;79.6
56558;BME280;43358;50.356;12.456;2023-06-19T08:03:32;95396;;;19.8;79
56558;BME280;43358;50.356;12.456;2023-06-19T08:04:37;95398;;;19.8;79.1
56558;BME280;43358;50.356;12.456;2023-06-19T08:05:41;95396;;;19.8;79.3
56558;BME280;43358;50.356;12.456;2023-06-19T08:06:45;95394;;;19.8;78.3
56558;BME280;43358;50.356;12.456;2023-06-19T08:07:47;95393;;;19.9;75.9
56558;BME280;43358;50.356;12.456;2023-06-19T08:08:52;95392;;;20;74.3
56558;BME280;43358;50.356;12.456;2023-06-19T08:09:57;95390;;;20;75.3
56558;BME280;43358;50.356;12.456;2023-06-19T08:11:00;95390;;;20;75.1
56558;BME280;43358;50.356;12.456;2023-06-19T08:12:04;95389;;;20;73.3
56558;BME280;43358;50.356;12.456;2023-06-19T08:13:08;95388;;;20.1;73.8
56558;BME280;43358;50.356;12.456;2023-06-19T08:14:12;95378;;;20.1;75.7
56558;BME280;43358;50.356;12.456;2023-06-19T08:15:16;95382;;;20.1;75.5
56558;BME280;43358;50.356;12.456;2023-06-19T08:16:20;95381;;;20.2;74.9
56558;BME280;43358;50.356;12.456;2023-06-19T08:17:24;95377;;;20.2;74.1
56558;BME280;43358;50.356;12.456;2023-06-19T08:18:28;95380;;;20.2;73.9
56558;BME280;43358;50.356;12.456;2023-06-19T08:23:19;95375;;;20.2;74
56558;BME280;43358;50.356;12.456;2023-06-19T08:23:45;95378;;;20.2;74.5
56558;BME280;43358;50.356;12.456;2023-06-19T08:24:50;95381;;;20.4;73.6
56558;BME280;43358;50.356;12.456;2023-06-19T08:26:58;95385;;;20.4;76.1
56558;BME280;43358;50.356;12.456;2023-06-19T08:28:17;95387;;;20.4;75.7
56558;BME280;43358;50.356;12.456;2023-06-19T08:29:17;95384;;;20.4;75.2
56558;BME280;43358;50.356;12.456;2023-06-19T08:30:17;95383;;;20.3;76.2
56558;BME280;43358;50.356;12.456;2023-06-19T08:33:13;95379;;;20.4;74.4
56558;BME280;43358;50.356;12.456;2023-06-19T08:34:01;95376;;;20.4;74.1
56558;BME280;43358;50.356;12.456;2023-06-19T08:35:31;95375;;;20.5;73.6
56558;BME280;43358;50.356;12.456;2023-06-19T08:36:17;95377;;;20.5;73.3
56558;BME280;43358;50.356;12.456;2023-06-19T08:38:17;95379;;;20.5;73
56558;BME280;43358;50.356;12.456;2023-06-19T08:39:21;95373;;;20.6;73.3
56558;BME280;43358;50.356;12.456;2023-06-19T08:40:25;95374;;;20.6;70.1
56558;BME280;43358;50.356;12.456;2023-06-19T08:43:37;95383;;;20.8;69.4
56558;BME280;43358;50.356;12.456;2023-06-19T08:44:41;95378;;;20.9;71
56558;BME280;43358;50.356;12.456;2023-06-19T08:45:43;95378;;;21;66.7
56558;BME280;43358;50.356;12.456;2023-06-19T08:46:46;95377;;;21.1;66.3
56558;BME280;43358;50.356;12.456;2023-06-19T08:47:53;95374;;;21.2;66.2
56558;BME280;43358;50.356;12.456;2023-06-19T08:48:55;95376;;;21.2;66.3
56558;BME280;43358;50.356;12.456;2023-06-19T08:49:59;95376;;;21.3;66.9
56558;BME280;43358;50.356;12.456;2023-06-19T08:51:03;95376;;;21.4;65
56558;BME280;43358;50.356;12.456;2023-06-19T08:52:07;95379;;;21.4;65.3
56558;BME280;43358;50.356;12.456;2023-06-19T08:53:12;95380;;;21.5;64.9
56558;BME280;43358;50.356;12.456;2023-06-19T08:54:17;95378;;;21.6;64.8
56558;BME280;43358;50.356;12.456;2023-06-19T08:55:20;95378;;;21.7;66.8
56558;BME280;43358;50.356;12.456;2023-06-19T08:56:25;95379;;;21.7;66.7
56558;BME280;43358;50.356;12.456;2023-06-19T08:57:34;95376;;;21.6;68.5
56558;BME280;43358;50.356;12.456;2023-06-19T08:58:33;95379;;;21.6;68
56558;BME280;43358;50.356;12.456;2023-06-19T08:59:37;95381;;;21.6;67.8
56558;BME280;43358;50.356;12.456;2023-06-19T09:00:41;95380;;;21.6;67.7
56558;BME280;43358;50.356;12.456;2023-06-19T09:01:46;95380;;;21.6;66
56558;BME280;43358;50.356;12.456;2023-06-19T09:02:49;95382;;;21.7;66.5
56558;BME280;43358;50.356;12.456;2023-06-19T09:04:57;95381;;;21.7;66.4
56558;BME280;43358;50.356;12.456;2023-06-19T09:06:02;95384;;;21.8;65.6
56558;BME280;43358;50.356;12.456;2023-06-19T09:07:04;95384;;;21.8;65.4
56558;BME280;43358;50.356;12.456;2023-06-19T09:08:12;95381;;;21.8;66
56558;BME280;43358;50.356;12.456;2023-06-19T09:09:13;95378;;;21.8;67.7
56558;BME280;43358;50.356;12.456;2023-06-19T09:10:17;95380;;;21.8;67.4
56558;BME280;43358;50.356;12.456;2023-06-19T09:11:21;95379;;;21.8;67.6
56558;BME280;43358;50.356;12.456;2023-06-19T09:12:31;95376;;;21.9;66.5
56558;BME280;43358;50.356;12.456;2023-06-19T09:13:30;95377;;;21.9;65.5
56558;BME280;43358;50.356;12.456;2023-06-19T09:14:33;95375;;;22;66.5
56558;BME280;43358;50.356;12.456;2023-06-19T09:15:37;95376;;;22;67.4
56558;BME280;43358;50.356;12.456;2023-06-19T09:16:41;95374;;;22;67.6
56558;BME280;43358;50.356;12.456;2023-06-19T09:17:43;95374;;;22;66.4
56558;BME280;43358;50.356;12.456;2023-06-19T09:18:46;95375;;;22;66.4
56558;BME280;43358;50.356;12.456;2023-06-19T09:19:49;95374;;;22;66.5
56558;BME280;43358;50.356;12.456;2023-06-19T09:20:53;95375;;;22;66.8
56558;BME280;43358;50.356;12.456;2023-06-19T09:21:59;95375;;;22;66.2
56558;BME280;43358;50.356;12.456;2023-06-19T09:23:00;95376;;;22;66.9
56558;BME280;43358;50.356;12.456;2023-06-19T09:24:05;95373;;;22;66.7
56558;BME280;43358;50.356;12.456;2023-06-19T09:25:31;95373;;;22.1;66
56558;BME280;43358;50.356;12.456;2023-06-19T09:26:17;95378;;;22.1;66.8
56558;BME280;43358;50.356;12.456;2023-06-19T09:27:18;95373;;;22.1;66.5
56558;BME280;43358;50.356;12.456;2023-06-19T09:28:20;95376;;;22.1;67.9
56558;BME280;43358;50.356;12.456;2023-06-19T09:29:22;95375;;;22.1;68.5
56558;BME280;43358;50.356;12.456;2023-06-19T09:30:27;95373;;;22.2;67.5
56558;BME280;43358;50.356;12.456;2023-06-19T09:31:31;95372;;;22.2;67.5
56558;BME280;43358;50.356;12.456;2023-06-19T09:32:35;95370;;;22.2;66.2
56558;BME280;43358;50.356;12.456;2023-06-19T09:33:40;95372;;;22.1;66.9
56558;BME280;43358;50.356;12.456;2023-06-19T09:34:44;95372;;;22.2;65.8
56558;BME280;43358;50.356;12.456;2023-06-19T09:35:46;95375;;;22.1;67.7
56558;BME280;43358;50.356;12.456;2023-06-19T09:36:49;95375;;;22.2;68.2
56558;BME280;43358;50.356;12.456;2023-06-19T09:37:53;95374;;;22.2;66.6
56558;BME280;43358;50.356;12.456;2023-06-19T09:38:58;95374;;;22.1;66.6
56558;BME280;43358;50.356;12.456;2023-06-19T09:41:06;95372;;;22.2;66
56558;BME280;43358;50.356;12.456;2023-06-19T09:42:12;95371;;;22.2;66.5
56558;BME280;43358;50.356;12.456;2023-06-19T09:43:15;95372;;;22.2;66.3
56558;BME280;43358;50.356;12.456;2023-06-19T09:44:18;95373;;;22.2;66.2
56558;BME280;43358;50.356;12.456;2023-06-19T09:47:31;95373;;;22.4;66.7
56558;BME280;43358;50.356;12.456;2023-06-19T09:49:39;95379;;;22.4;66.9
56558;BME280;43358;50.356;12.456;2023-06-19T09:50:43;95378;;;22.4;66.6
56558;BME280;43358;50.356;12.456;2023-06-19T09:52:59;95381;;;22.5;66
56558;BME280;43358;50.356;12.456;2023-06-19T09:53:54;95379;;;22.5;66.4
56558;BME280;43358;50.356;12.456;2023-06-19T09:55:01;95379;;;22.5;67.2
56558;BME280;43358;50.356;12.456;2023-06-19T09:56:03;95377;;;22.5;66.3
56558;BME280;43358;50.356;12.456;2023-06-19T09:57:07;95379;;;22.5;65.6
56558;BME280;43358;50.356;12.456;2023-06-19T09:58:11;95376;;;22.5;67
56558;BME280;43358;50.356;12.456;2023-06-19T09:59:15;95379;;;22.5;66.2
56558;BME280;43358;50.356;12.456;2023-06-19T10:00:23;95379;;;22.5;66.1
56558;BME280;43358;50.356;12.456;2023-06-19T10:02:17;95382;;;22.5;66.1
56558;BME280;43358;50.356;12.456;2023-06-19T10:03:17;95381;;;22.5;66.1
56558;BME280;43358;50.356;12.456;2023-06-19T10:04:17;95380;;;22.6;66.3
56558;BME280;43358;50.356;12.456;2023-06-19T10:05:27;95384;;;22.6;66.1
56558;BME280;43358;50.356;12.456;2023-06-19T10:06:17;95381;;;22.6;65.8
56558;BME280;43358;50.356;12.456;2023-06-19T10:07:18;95381;;;22.6;65.6
56558;BME280;43358;50.356;12.456;2023-06-19T10:08:25;95381;;;22.7;65.7
56558;BME280;43358;50.356;12.456;2023-06-19T10:10:01;95380;;;22.7;65.5
56558;BME280;43358;50.356;12.456;2023-06-19T10:11:04;95377;;;22.7;65.5
56558;BME280;43358;50.356;12.456;2023-06-19T10:12:12;95378;;;22.6;66.3
56558;BME280;43358;50.356;12.456;2023-06-19T10:13:12;95378;;;22.6;66.5
56558;BME280;43358;50.356;12.456;2023-06-19T10:14:16;95381;;;22.5;67
56558;BME280;43358;50.356;12.456;2023-06-19T10:15:22;95378;;;22.6;66.5
56558;BME280;43358;50.356;12.456;2023-06-19T10:16:31;95385;;;22.6;66.6
56558;BME280;43358;50.356;12.456;2023-06-19T10:17:31;95382;;;22.6;66.4
56558;BME280;43358;50.356;12.456;2023-06-19T10:18:44;95383;;;22.6;67
56558;BME280;43358;50.356;12.456;2023-06-19T10:19:38;95382;;;22.6;67.4
56558;BME280;43358;50.356;12.456;2023-06-19T10:20:42;95382;;;22.6;66.9
56558;BME280;43358;50.356;12.456;2023-06-19T10:21:47;95382;;;22.6;67
56558;BME280;43358;50.356;12.456;2023-06-19T10:22:51;95380;;;22.6;67.4
56558;BME280;43358;50.356;12.456;2023-06-19T10:23:55;95378;;;22.5;66.8
56558;BME280;43358;50.356;12.456;2023-06-19T10:25:21;95376;;;22.5;67.3
56558;BME280;43358;50.356;12.456;2023-06-19T10:26:05;95377;;;22.5;67.3
56558;BME280;43358;50.356;12.456;2023-06-19T10:27:08;95377;;;22.4;67.5
56558;BME280;43358;50.356;12.456;2023-06-19T10:28:25;95380;;;22.4;67
56558;BME280;43358;50.356;12.456;2023-06-19T10:29:16;95375;;;22.4;66.8
56558;BME280;43358;50.356;12.456;2023-06-19T10:30:19;95379;;;22.4;67.6
56558;BME280;43358;50.356;12.456;2023-06-19T10:31:24;95376;;;22.4;67.4
56558;BME280;43358;50.356;12.456;2023-06-19T10:32:28;95376;;;22.4;67.2
56558;BME280;43358;50.356;12.456;2023-06-19T10:33:30;95377;;;22.4;67.4
56558;BME280;43358;50.356;12.456;2023-06-19T10:34:33;95375;;;22.4;67
56558;BME280;43358;50.356;12.456;2023-06-19T10:35:37;95375;;;22.4;66.9
56558;BME280;43358;50.356;12.456;2023-06-19T10:36:41;95374;;;22.4;67.4
56558;BME280;43358;50.356;12.456;2023-06-19T10:37:45;95373;;;22.5;67.2
56558;BME280;43358;50.356;12.456;2023-06-19T10:38:49;95373;;;22.5;67.3
56558;BME280;43358;50.356;12.456;2023-06-19T10:39:53;95375;;;22.5;66.8
56558;BME280;43358;50.356;12.456;2023-06-19T10:42:04;95373;;;22.6;66.7
56558;BME280;43358;50.356;12.456;2023-06-19T10:43:05;95371;;;22.7;67.1
56558;BME280;43358;50.356;12.456;2023-06-19T10:46:32;95373;;;22.7;67.1
56558;BME280;43358;50.356;12.456;2023-06-19T10:48:43;95376;;;22.7;67.2
56558;BME280;43358;50.356;12.456;2023-06-19T10:50:36;95376;;;22.8;67.4
56558;BME280;43358;50.356;12.456;2023-06-19T10:53:23;95375;;;22.8;67.3
56558;BME280;43358;50.356;12.456;2023-06-19T10:54:28;95373;;;22.8;67.1
56558;BME280;43358;50.356;12.456;2023-06-19T10:55:17;95369;;;22.8;65.4
56558;BME280;43358;50.356;12.456;2023-06-19T10:56:19;95372;;;22.9;65.3
56558;BME280;43358;50.356;12.456;2023-06-19T10:57:37;95371;;;22.9;64.5
56558;BME280;43358;50.356;12.456;2023-06-19T10:59:31;95370;;;22.9;64.5
56558;BME280;43358;50.356;12.456;2023-06-19T11:01:45;95375;;;22.9;65.3
56558;BME280;43358;50.356;12.456;2023-06-19T11:02:49;95374;;;22.9;64.8
56558;BME280;43358;50.356;12.456;2023-06-19T11:03:53;95378;;;22.9;65
56558;BME280;43358;50.356;12.456;2023-06-19T11:04:56;95380;;;22.9;65
56558;BME280;43358;50.356;12.456;2023-06-19T11:06:00;95380;;;22.9;65.4
56558;BME280;43358;50.356;12.456;2023-06-19T11:07:04;95380;;;22.9;65.7
56558;BME280;43358;50.356;12.456;2023-06-19T11:08:08;95383;;;22.9;65.2
56558;BME280;43358;50.356;12.456;2023-06-19T11:09:12;95380;;;22.9;65.2
56558;BME280;43358;50.356;12.456;2023-06-19T11:10:18;95378;;;22.9;64.9
56558;BME280;43358;50.356;12.456;2023-06-19T11:12:37;95375;;;23;64.4
56558;BME280;43358;50.356;12.456;2023-06-19T11:13:28;95378;;;23.1;64.9
56558;BME280;43358;50.356;12.456;2023-06-19T11:14:33;95377;;;23.1;64.7
56558;BME280;43358;50.356;12.456;2023-06-19T11:15:36;95378;;;23.1;64.4
56558;BME280;43358;50.356;12.456;2023-06-19T11:16:41;95376;;;23.1;65.3
56558;BME280;43358;50.356;12.456;2023-06-19T11:17:44;95375;;;23.1;65.3
56558;BME280;43358;50.356;12.456;2023-06-19T11:19:53;95376;;;23.1;65.2
56558;BME280;43358;50.356;12.456;2023-06-19T11:20:56;95373;;;23.2;65.3
56558;BME280;43358;50.356;12.456;2023-06-19T11:22:13;95369;;;23.2;65.2
56558;BME280;43358;50.356;12.456;2023-06-19T11:23:04;95370;;;23.2;66.3
56558;BME280;43358;50.356;12.456;2023-06-19T11:26:33;95374;;;23.2;65.1
56558;BME280;43358;50.356;12.456;2023-06-19T11:27:31;95375;;;23.2;65.2
56558;BME280;43358;50.356;12.456;2023-06-19T11:32:18;95367;;;23.2;66.5
56558;BME280;43358;50.356;12.456;2023-06-19T11:33:55;95377;;;23.2;66.3
56558;BME280;43358;50.356;12.456;2023-06-19T11:40:26;95359;;;23.5;63.6
56558;BME280;43358;50.356;12.456;2023-06-19T11:41:24;95366;;;23.6;64.3
56558;BME280;43358;50.356;12.456;2023-06-19T11:42:17;95362;;;23.7;63.2
56558;BME280;43358;50.356;12.456;2023-06-19T11:43:24;95360;;;23.7;63.2
56558;BME280;43358;50.356;12.456;2023-06-19T11:44:17;95362;;;23.7;63.4
56558;BME280;43358;50.356;12.456;2023-06-19T11:45:20;95365;;;23.8;63.3
56558;BME280;43358;50.356;12.456;2023-06-19T11:47:40;95365;;;23.8;64.4
56558;BME280;43358;50.356;12.456;2023-06-19T11:50:36;95364;;;23.8;64.8
56558;BME280;43358;50.356;12.456;2023-06-19T11:53:17;95357;;;23.8;64.5
56558;BME280;43358;50.356;12.456;2023-06-19T11:56:29;95355;;;23.8;64.8
56558;BME280;43358;50.356;12.456;2023-06-19T11:57:49;95361;;;23.8;64.2
56558;BME280;43358;50.356;12.456;2023-06-19T12:34:48;95355;;;23.9;63.9
56558;BME280;43358;50.356;12.456;2023-06-19T12:34:49;95364;;;23.9;64.1
56558;BME280;43358;50.356;12.456;2023-06-19T12:35:03;95331;;;24;63.9
56558;BME280;43358;50.356;12.456;2023-06-19T12:36:01;95327;;;25.4;61.2
56558;BME280;43358;50.356;12.456;2023-06-19T12:37:04;95321;;;25.4;61.4
56558;BME280;43358;50.356;12.456;2023-06-19T12:38:08;95326;;;25.4;62.3
56558;BME280;43358;50.356;12.456;2023-06-19T12:40:16;95327;;;25.5;61.5
56558;BME280;43358;50.356;12.456;2023-06-19T12:41:20;95326;;;25.7;60.5
56558;BME280;43358;50.356;12.456;2023-06-19T12:42:24;95328;;;25.7;61
56558;BME280;43358;50.356;12.456;2023-06-19T12:43:28;95330;;;25.7;62.5
56558;BME280;43358;50.356;12.456;2023-06-19T12:44:36;95335;;;25.8;60.8
56558;BME280;43358;50.356;12.456;2023-06-19T12:45:40;95334;;;25.8;60.7
56558;BME280;43358;50.356;12.456;2023-06-19T12:47:49;95327;;;25.8;61.4
56558;BME280;43358;50.356;12.456;2023-06-19T12:53:11;95332;;;25.9;59.8
56558;BME280;43358;50.356;12.456;2023-06-19T12:54:29;95339;;;26;60.1
56558;BME280;43358;50.356;12.456;2023-06-19T12:57:42;95320;;;26.2;59.8
56558;BME280;43358;50.356;12.456;2023-06-19T13:03:45;95321;;;26.3;59.3
56558;BME280;43358;50.356;12.456;2023-06-19T13:05:52;95318;;;26.4;60.6
56558;BME280;43358;50.356;12.456;2023-06-19T13:08:00;95312;;;26.5;61.1
56558;BME280;43358;50.356;12.456;2023-06-19T13:17:40;95315;;;26.5;59
56558;BME280;43358;50.356;12.456;2023-06-19T13:17:41;95311;;;26.6;59
56558;BME280;43358;50.356;12.456;2023-06-19T13:18:38;95304;;;26.7;59
56558;BME280;43358;50.356;12.456;2023-06-19T13:33:08;95298;;;26.7;59.3
56558;BME280;43358;50.356;12.456;2023-06-19T13:33:10;95302;;;26.8;59.6
56558;BME280;43358;50.356;12.456;2023-06-19T13:33:33;95295;;;26.9;58.4
56558;BME280;43358;50.356;12.456;2023-06-19T13:35:18;95295;;;26.9;58.3
56558;BME280;43358;50.356;12.456;2023-06-19T13:36:59;95290;;;26.9;58.4
56558;BME280;43358;50.356;12.456;2023-06-19T13:41:20;95291;;;26.9;58.3
56558;BME280;43358;50.356;12.456;2023-06-19T13:42:17;95290;;;27;58.7
56558;BME280;43358;50.356;12.456;2023-06-19T13:47:17;95290;;;27;58.7
56558;BME280;43358;50.356;12.456;2023-06-19T13:48:17;95285;;;27;59.3
56558;BME280;43358;50.356;12.456;2023-06-19T13:52:17;95282;;;27.1;59.2